createdAt,value
2022-09-20T00:01:21.769Z,98319.13
2022-09-20T00:03:51.690Z,98316.05
2022-09-20T00:06:22.105Z,98318.73
2022-09-20T00:08:49.647Z,98319.36
2022-09-20T00:11:19.254Z,98326.50
2022-09-20T00:13:47.905Z,98325.88
2022-09-20T00:16:18.870Z,98326.33
2022-09-20T00:18:49.988Z,98321.41
2022-09-20T00:21:19.201Z,98320.99
2022-09-20T00:23:46.472Z,98320.40
2022-09-20T00:26:14.068Z,98321.41
2022-09-20T00:28:42.021Z,98320.05
2022-09-20T00:31:08.931Z,98320.60
2022-09-20T00:33:51.605Z,98317.33
2022-09-20T00:36:18.384Z,98321.04
2022-09-20T00:38:45.165Z,98315.83
2022-09-20T00:41:11.913Z,98320.34
2022-09-20T00:43:42.320Z,98324.38
2022-09-20T00:46:23.268Z,98326.34
2022-09-20T00:48:55.137Z,98326.02
2022-09-20T00:51:29.695Z,98328.23
2022-09-20T00:53:59.526Z,98328.60
2022-09-20T00:56:31.427Z,98324.30
2022-09-20T00:59:01.760Z,98324.05
2022-09-20T01:01:29.007Z,98324.78
2022-09-20T01:03:56.283Z,98327.14
2022-09-20T01:06:23.003Z,98328.38
2022-09-20T01:08:53.619Z,98328.80
2022-09-20T01:11:20.416Z,98326.17
2022-09-20T01:13:47.164Z,98328.62
2022-09-20T01:16:16.193Z,98328.04
2022-09-20T01:18:44.827Z,98326.25
2022-09-20T01:21:12.494Z,98328.34
2022-09-20T01:23:44.216Z,98321.70
2022-09-20T01:26:16.230Z,98323.86
2022-09-20T01:28:47.751Z,98324.02
2022-09-20T01:31:19.640Z,98330.29
2022-09-20T01:33:53.271Z,98334.55
2022-09-20T01:36:26.937Z,98335.43
2022-09-20T01:39:25.343Z,98334.40
2022-09-20T01:41:59.495Z,98333.75
2022-09-20T01:44:34.558Z,98334.46
2022-09-20T01:47:12.606Z,98335.55
2022-09-20T01:49:52.960Z,98335.15
2022-09-20T01:52:35.849Z,98337.97
2022-09-20T01:55:10.940Z,98340.38
2022-09-20T01:57:53.951Z,98344.22
2022-09-20T02:00:26.298Z,98340.69
2022-09-20T02:03:05.506Z,98344.41
2022-09-20T02:05:51.840Z,98344.08
2022-09-20T02:08:34.733Z,98343.21
2022-09-20T02:11:05.395Z,98339.10
2022-09-20T02:13:40.812Z,98343.78
2022-09-20T02:16:39.310Z,98337.54
2022-09-20T02:19:21.874Z,98336.90
2022-09-20T02:22:09.694Z,98339.26
2022-09-20T02:24:55.820Z,98340.26
2022-09-20T02:27:54.127Z,98339.94
2022-09-20T02:30:36.904Z,98346.60
2022-09-20T02:33:05.250Z,98345.35
2022-09-20T02:35:48.086Z,98344.30
2022-09-20T02:38:34.297Z,98342.32
2022-09-20T02:41:26.538Z,98346.02
2022-09-20T02:44:03.188Z,98345.25
2022-09-20T02:46:54.872Z,98346.90
2022-09-20T02:49:53.030Z,98351.45
2022-09-20T02:52:32.359Z,98349.34
2022-09-20T02:55:14.126Z,98351.94
2022-09-20T02:57:57.517Z,98354.81
2022-09-20T03:00:28.904Z,98360.30
2022-09-20T03:03:14.830Z,98358.81
2022-09-20T03:05:58.419Z,98360.49
2022-09-20T03:08:36.847Z,98359.80
2022-09-20T03:11:19.733Z,98362.52
2022-09-20T03:13:59.436Z,98366.45
2022-09-20T03:16:52.223Z,98364.27
2022-09-20T03:19:36.240Z,98365.88
2022-09-20T03:22:19.749Z,98368.07
2022-09-20T03:25:12.210Z,98367.73
2022-09-20T03:27:48.956Z,98367.73
2022-09-20T03:30:47.600Z,98369.77
2022-09-20T03:33:23.282Z,98371.56
2022-09-20T03:36:08.698Z,98374.98
2022-09-20T03:38:37.162Z,98376.94
2022-09-20T03:41:15.840Z,98378.20
2022-09-20T03:44:09.114Z,98377.64
2022-09-20T03:46:45.619Z,98376.70
2022-09-20T03:49:43.563Z,98378.65
2022-09-20T03:52:40.303Z,98382.07
2022-09-20T03:55:23.033Z,98386.14
2022-09-20T03:58:13.463Z,98387.65
2022-09-20T04:00:48.499Z,98389.05
2022-09-20T04:03:32.118Z,98390.59
2022-09-20T04:06:17.919Z,98389.28
2022-09-20T04:08:54.897Z,98392.41
2022-09-20T04:11:33.077Z,98392.70
2022-09-20T04:14:22.025Z,98395.24
2022-09-20T04:17:01.060Z,98398.60
2022-09-20T04:19:45.708Z,98403.40
2022-09-20T04:22:12.910Z,98400.88
2022-09-20T04:24:53.947Z,98403.77
2022-09-20T04:27:29.070Z,98403.14
2022-09-20T04:30:06.334Z,98403.11
2022-09-20T04:32:42.917Z,98407.30
2022-09-20T04:35:57.093Z,98404.80
2022-09-20T04:38:25.040Z,98408.45
2022-09-20T04:41:09.178Z,98410.77
2022-09-20T04:44:02.977Z,98411.84
2022-09-20T04:46:58.077Z,98409.61
2022-09-20T04:49:25.573Z,98410.67
2022-09-20T04:52:23.685Z,98409.96
2022-09-20T04:55:13.700Z,98410.27
2022-09-20T04:57:57.517Z,98414.30
2022-09-20T05:00:32.798Z,98413.04
2022-09-20T05:03:13.844Z,98419.59
2022-09-20T05:06:00.007Z,98420.30
2022-09-20T05:08:45.878Z,98419.96
2022-09-20T05:11:34.638Z,98425.69
2022-09-20T05:14:33.014Z,98430.41
2022-09-20T05:17:11.675Z,98431.96
2022-09-20T05:19:55.201Z,98430.59
2022-09-20T05:22:38.861Z,98435.30
2022-09-20T05:25:40.019Z,98432.13
2022-09-20T05:28:11.040Z,98438.00
2022-09-20T05:30:45.716Z,98439.46
2022-09-20T05:33:20.708Z,98441.10
2022-09-20T05:36:03.840Z,98442.98
2022-09-20T05:38:47.327Z,98445.23
2022-09-20T05:41:23.813Z,98445.25
2022-09-20T05:44:10.101Z,98444.28
2022-09-20T05:46:46.332Z,98451.60
2022-09-20T05:49:44.373Z,98449.58
2022-09-20T05:52:31.137Z,98454.54
2022-09-20T05:55:18.332Z,98453.40
2022-09-20T05:57:56.615Z,98456.48
2022-09-20T06:00:29.818Z,98458.69
2022-09-20T06:03:17.537Z,98459.52
2022-09-20T06:06:03.660Z,98467.95
2022-09-20T06:08:54.829Z,98466.11
2022-09-20T06:11:53.066Z,98463.56
2022-09-20T06:14:51.209Z,98467.73
2022-09-20T06:17:31.050Z,98469.28
2022-09-20T06:20:26.721Z,98479.30
2022-09-20T06:22:56.698Z,98478.42
2022-09-20T06:25:43.125Z,98475.11
2022-09-20T06:28:20.827Z,98475.59
2022-09-20T06:30:50.999Z,98476.48
2022-09-20T06:33:20.682Z,98476.88
2022-09-20T06:35:52.382Z,98478.59
2022-09-20T06:39:00.085Z,98483.88
2022-09-20T06:41:28.947Z,98485.90
2022-09-20T06:43:59.172Z,98492.14
2022-09-20T06:46:29.033Z,98493.52
2022-09-20T06:48:57.136Z,98497.23
2022-09-20T06:51:26.562Z,98489.65
2022-09-20T06:53:56.146Z,98494.19
2022-09-20T06:56:27.088Z,98497.52
2022-09-20T06:58:54.412Z,98498.36
2022-09-20T07:01:29.620Z,98504.21
2022-09-20T07:03:58.837Z,98505.54
2022-09-20T07:06:26.851Z,98505.61
2022-09-20T07:08:53.609Z,98509.07
2022-09-20T07:11:20.461Z,98507.08
2022-09-20T07:13:52.165Z,98516.11
2022-09-20T07:16:19.011Z,98513.70
2022-09-20T07:18:46.426Z,98516.30
2022-09-20T07:21:15.417Z,98523.58
2022-09-20T07:23:42.564Z,98524.67
2022-09-20T07:26:26.674Z,98527.83
2022-09-20T07:28:53.662Z,98533.45
2022-09-20T07:31:23.137Z,98534.31
2022-09-20T07:33:49.958Z,98535.13
2022-09-20T07:36:17.438Z,98536.95
2022-09-20T07:38:48.700Z,98537.29
2022-09-20T07:41:15.596Z,98539.58
2022-09-20T07:43:42.318Z,98539.13
2022-09-20T07:46:10.216Z,98542.80
2022-09-20T07:48:37.083Z,98546.89
2022-09-20T07:51:08.908Z,98548.33
2022-09-20T07:53:37.427Z,98550.39
2022-09-20T07:56:07.457Z,98550.08
2022-09-20T07:58:35.839Z,98554.15
2022-09-20T08:01:06.701Z,98554.77
2022-09-20T08:03:35.105Z,98555.73
2022-09-20T08:06:05.016Z,98557.52
2022-09-20T08:08:33.615Z,98559.71
2022-09-20T08:11:05.459Z,98556.88
2022-09-20T08:16:24.133Z,98555.94
2022-09-20T08:18:55.778Z,98559.19
2022-09-20T08:21:24.043Z,98557.73
2022-09-20T08:23:51.401Z,98557.56
2022-09-20T08:26:22.745Z,98559.22
2022-09-20T08:28:53.334Z,98564.86
2022-09-20T08:31:22.429Z,98564.88
2022-09-20T08:33:50.559Z,98563.83
2022-09-20T08:36:19.673Z,98566.95
2022-09-20T08:41:39.234Z,98560.61
2022-09-20T08:44:26.449Z,98560.30
2022-09-20T08:47:06.395Z,98563.29
2022-09-20T08:49:33.675Z,98564.13
2022-09-20T08:52:03.322Z,98572.23
2022-09-20T08:54:33.273Z,98574.38
2022-09-20T08:57:10.894Z,98577.20
2022-09-20T08:59:37.707Z,98580.77
2022-09-20T09:02:15.814Z,98583.13
2022-09-20T09:04:44.867Z,98584.60
2022-09-20T09:07:17.431Z,98582.58
2022-09-20T09:09:47.448Z,98581.63
2022-09-20T09:12:22.134Z,98581.64
2022-09-20T09:14:52.478Z,98578.95
2022-09-20T09:17:27.460Z,98584.73
2022-09-20T09:20:00.193Z,98583.27
2022-09-20T09:22:40.277Z,98580.45
2022-09-20T09:25:08.762Z,98584.27
2022-09-20T09:27:35.612Z,98581.77
2022-09-20T09:30:02.403Z,98582.70
2022-09-20T09:32:33.057Z,98584.52
2022-09-20T09:35:25.031Z,98582.04
2022-09-20T09:38:01.646Z,98582.67
2022-09-20T09:40:31.729Z,98583.33
2022-09-20T09:43:01.029Z,98585.68
2022-09-20T09:45:32.325Z,98583.83
2022-09-20T09:48:01.746Z,98584.40
2022-09-20T09:50:32.127Z,98583.94
2022-09-20T09:53:03.180Z,98580.89
2022-09-20T09:55:54.545Z,98580.68
2022-09-20T09:58:40.612Z,98579.65
2022-09-20T10:01:21.604Z,98576.55
2022-09-20T10:03:59.145Z,98573.98
2022-09-20T10:06:34.191Z,98572.46
2022-09-20T10:09:16.996Z,98572.88
2022-09-20T10:12:09.382Z,98570.17
2022-09-20T10:14:40.209Z,98578.57
2022-09-20T10:17:09.694Z,98577.42
2022-09-20T10:19:45.034Z,98574.63
2022-09-20T10:22:18.737Z,98578.28
2022-09-20T10:25:03.250Z,98578.20
2022-09-20T10:27:45.564Z,98576.21
2022-09-20T10:30:17.209Z,98573.05
2022-09-20T10:32:50.689Z,98568.73
2022-09-20T10:35:22.634Z,98561.61
2022-09-20T10:37:58.610Z,98562.08
2022-09-20T10:40:50.778Z,98560.54
2022-09-20T10:43:43.268Z,98561.83
2022-09-20T10:46:36.575Z,98551.46
2022-09-20T10:49:26.948Z,98552.70
2022-09-20T10:52:09.683Z,98553.38
2022-09-20T10:55:08.873Z,98544.80
2022-09-20T10:57:53.285Z,98549.33
2022-09-20T11:00:21.396Z,98549.66
2022-09-20T11:02:59.760Z,98552.69
2022-09-20T11:05:36.267Z,98549.75
2022-09-20T11:08:22.871Z,98550.27
2022-09-20T11:11:14.464Z,98549.92
2022-09-20T11:13:45.778Z,98551.68
2022-09-20T11:16:19.593Z,98549.13
2022-09-20T11:18:50.669Z,98548.33
2022-09-20T11:21:24.735Z,98551.63
2022-09-20T11:24:20.716Z,98551.73
2022-09-20T11:27:02.806Z,98553.55
2022-09-20T11:29:37.977Z,98550.51
2022-09-20T11:32:28.523Z,98561.98
2022-09-20T11:35:02.347Z,98564.89
2022-09-20T11:37:33.468Z,98569.41
2022-09-20T11:40:06.195Z,98565.44
2022-09-20T11:42:38.635Z,98564.23
2022-09-20T11:45:06.388Z,98567.49
2022-09-20T11:47:53.765Z,98568.95
2022-09-20T11:50:38.751Z,98565.09
2022-09-20T11:53:32.132Z,98566.84
2022-09-20T11:56:09.004Z,98571.89
2022-09-20T11:58:53.015Z,98565.89
2022-09-20T12:01:36.511Z,98565.14
2022-09-20T12:07:18.091Z,98563.61
2022-09-20T12:09:52.903Z,98563.01
2022-09-20T12:12:45.398Z,98559.63
2022-09-20T12:15:43.746Z,98559.49
2022-09-20T12:18:28.182Z,98554.20
2022-09-20T12:20:56.587Z,98555.20
2022-09-20T12:23:40.566Z,98551.61
2022-09-20T12:26:09.752Z,98548.33
2022-09-20T12:28:39.737Z,98543.84
2022-09-20T12:31:31.982Z,98541.85
2022-09-20T12:34:15.552Z,98535.26
2022-09-20T12:36:46.719Z,98541.98
2022-09-20T12:39:21.656Z,98535.95
2022-09-20T12:41:54.557Z,98537.83
2022-09-20T12:44:42.602Z,98541.30
2022-09-20T12:47:10.971Z,98528.27
2022-09-20T12:50:05.036Z,98531.81
2022-09-20T12:52:51.366Z,98537.18
2022-09-20T12:55:40.079Z,98544.65
2022-09-20T12:58:14.892Z,98547.33
2022-09-20T13:00:46.742Z,98540.83
2022-09-20T13:03:29.787Z,98539.98
2022-09-20T13:06:17.511Z,98536.86
2022-09-20T13:09:04.580Z,98534.71
2022-09-20T13:11:53.542Z,98536.91
2022-09-20T13:14:24.167Z,98537.06
2022-09-20T13:16:59.295Z,98539.14
2022-09-20T13:19:33.575Z,98540.01
2022-09-20T13:22:01.146Z,98545.29
2022-09-20T13:24:33.095Z,98543.60
2022-09-20T13:27:09.508Z,98544.96
2022-09-20T13:29:42.364Z,98542.11
2022-09-20T13:32:26.342Z,98541.71
2022-09-20T13:35:14.769Z,98541.57
2022-09-20T13:37:59.395Z,98548.57
2022-09-20T13:40:33.975Z,98549.45
2022-09-20T13:43:22.525Z,98551.21
2022-09-20T13:45:55.381Z,98552.13
2022-09-20T13:48:26.942Z,98555.63
2022-09-20T13:50:55.185Z,98552.37
2022-09-20T13:53:40.680Z,98549.91
2022-09-20T13:56:19.748Z,98552.11
2022-09-20T13:58:46.531Z,98551.98
2022-09-20T14:01:31.206Z,98552.54
2022-09-20T14:04:05.951Z,98554.43
2022-09-20T14:06:33.643Z,98552.02
2022-09-20T14:09:09.834Z,98546.44
2022-09-20T14:11:39.183Z,98546.92
2022-09-20T14:14:08.135Z,98546.67
2022-09-20T14:16:39.947Z,98547.11
2022-09-20T14:19:08.359Z,98551.98
2022-09-20T14:21:37.271Z,98553.55
2022-09-20T14:24:05.047Z,98548.79
2022-09-20T14:26:34.770Z,98547.80
2022-09-20T14:29:32.837Z,98550.50
2022-09-20T14:32:06.077Z,98549.73
2022-09-20T14:34:38.236Z,98556.05
2022-09-20T14:37:25.494Z,98553.22
2022-09-20T14:39:55.984Z,98553.53
2022-09-20T14:42:29.880Z,98554.47
2022-09-20T14:44:56.591Z,98556.01
2022-09-20T14:47:28.505Z,98555.77
2022-09-20T14:49:55.834Z,98553.95
2022-09-20T14:52:27.115Z,98559.01
2022-09-20T14:55:02.000Z,98553.77
2022-09-20T14:57:30.124Z,98554.31
2022-09-20T14:59:58.141Z,98555.57
2022-09-20T15:02:25.895Z,98557.40
2022-09-20T15:04:56.193Z,98562.07
2022-09-20T15:07:23.379Z,98562.00
2022-09-20T15:09:50.158Z,98560.32
2022-09-20T15:12:19.586Z,98566.45
2022-09-20T15:14:47.421Z,98563.22
2022-09-20T15:17:17.415Z,98571.14
2022-09-20T15:19:45.326Z,98573.30
2022-09-20T15:22:12.180Z,98565.70
2022-09-20T15:24:38.954Z,98571.36
2022-09-20T15:27:06.031Z,98575.55
2022-09-20T15:29:33.558Z,98580.14
2022-09-20T15:32:00.326Z,98588.41
2022-09-20T15:34:27.074Z,98600.16
2022-09-20T15:36:54.770Z,98597.93
2022-09-20T15:39:22.444Z,98601.20
2022-09-20T15:41:52.221Z,98606.64
2022-09-20T15:44:19.277Z,98606.75
2022-09-20T15:46:46.647Z,98613.68
2022-09-20T15:49:13.420Z,98615.94
2022-09-20T15:51:40.173Z,98618.92
2022-09-20T15:54:07.872Z,98615.94
2022-09-20T15:56:37.495Z,98615.38
2022-09-20T15:59:06.769Z,98613.88
2022-09-20T16:01:37.638Z,98619.58
2022-09-20T16:04:08.162Z,98621.35
2022-09-20T16:06:35.087Z,98620.97
2022-09-20T16:09:01.977Z,98621.23
2022-09-20T16:11:29.110Z,98623.00
2022-09-20T16:13:58.482Z,98628.31
2022-09-20T16:16:27.377Z,98633.37
2022-09-20T16:19:09.904Z,98639.84
2022-09-20T16:21:39.654Z,98640.42
2022-09-20T16:24:07.031Z,98642.29
2022-09-20T16:26:34.694Z,98647.77
2022-09-20T16:29:07.544Z,98654.06
2022-09-20T16:31:40.172Z,98651.02
2022-09-20T16:34:12.362Z,98652.59
2022-09-20T16:36:42.379Z,98649.91
2022-09-20T16:39:10.565Z,98657.51
2022-09-20T16:41:39.213Z,98659.76
2022-09-20T16:44:06.030Z,98664.69
2022-09-20T16:46:37.119Z,98670.69
2022-09-20T16:49:07.515Z,98673.83
2022-09-20T16:51:37.010Z,98678.44
2022-09-20T16:54:11.776Z,98684.23
2022-09-20T16:56:41.634Z,98686.22
2022-09-20T16:59:08.376Z,98691.67
2022-09-20T17:01:37.053Z,98698.80
2022-09-20T17:04:06.683Z,98701.95
2022-09-20T17:06:35.796Z,98706.66
2022-09-20T17:09:03.943Z,98708.92
2022-09-20T17:11:33.458Z,98712.69
2022-09-20T17:14:00.299Z,98715.67
2022-09-20T17:16:30.758Z,98717.52
2022-09-20T17:19:00.551Z,98717.66
2022-09-20T17:21:29.230Z,98721.75
2022-09-20T17:23:59.036Z,98720.85
2022-09-20T17:26:33.263Z,98727.46
2022-09-20T17:29:02.123Z,98725.20
2022-09-20T17:31:33.841Z,98724.02
2022-09-20T17:34:02.396Z,98724.84
2022-09-20T17:36:31.603Z,98732.07
2022-09-20T17:39:04.188Z,98731.46
2022-09-20T17:41:32.877Z,98736.45
2022-09-20T17:44:02.775Z,98740.05
2022-09-20T17:46:31.845Z,98739.90
2022-09-20T17:49:02.089Z,98743.02
2022-09-20T17:51:31.364Z,98746.36
2022-09-20T17:53:58.213Z,98752.08
2022-09-20T17:56:30.958Z,98751.73
2022-09-20T17:59:00.823Z,98754.82
2022-09-20T18:01:29.427Z,98758.96
2022-09-20T18:03:58.830Z,98757.12
2022-09-20T18:06:29.124Z,98762.86
2022-09-20T18:08:58.916Z,98761.77
2022-09-20T18:11:33.822Z,98765.34
2022-09-20T18:14:02.048Z,98768.40
2022-09-20T18:16:31.133Z,98769.20
2022-09-20T18:19:00.343Z,98771.71
2022-09-20T18:21:30.730Z,98776.09
2022-09-20T18:23:59.095Z,98782.94
2022-09-20T18:26:30.442Z,98778.45
2022-09-20T18:29:04.762Z,98784.73
2022-09-20T18:31:36.783Z,98784.92
2022-09-20T18:34:06.720Z,98787.58
2022-09-20T18:36:36.261Z,98790.30
2022-09-20T18:39:03.906Z,98796.19
2022-09-20T18:41:33.798Z,98799.13
2022-09-20T18:44:03.020Z,98801.55
2022-09-20T18:46:30.875Z,98802.48
2022-09-20T18:49:01.464Z,98801.65
2022-09-20T18:51:28.994Z,98805.53
2022-09-20T18:53:56.991Z,98801.50
2022-09-20T18:56:24.662Z,98804.89
2022-09-20T18:58:54.443Z,98804.08
2022-09-20T19:01:23.893Z,98808.73
2022-09-20T19:04:06.537Z,98813.30
2022-09-20T19:06:45.906Z,98810.21
2022-09-20T19:09:22.910Z,98817.48
2022-09-20T19:11:59.463Z,98816.55
2022-09-20T19:14:35.850Z,98818.73
2022-09-20T19:17:02.767Z,98824.98
2022-09-20T19:19:32.293Z,98828.17
2022-09-20T19:22:34.692Z,98829.48
2022-09-20T19:25:15.166Z,98827.61
2022-09-20T19:27:42.233Z,98828.05
2022-09-20T19:30:13.623Z,98828.37
2022-09-20T19:32:40.771Z,98830.11
2022-09-20T19:35:17.479Z,98827.30
2022-09-20T19:38:02.289Z,98828.61
2022-09-20T19:40:35.616Z,98831.97
2022-09-20T19:43:18.654Z,98836.48
2022-09-20T19:46:06.931Z,98834.36
2022-09-20T19:48:48.905Z,98832.66
2022-09-20T19:51:17.150Z,98834.77
2022-09-20T19:53:44.383Z,98836.60
2022-09-20T19:56:25.686Z,98833.39
2022-09-20T19:58:55.083Z,98836.30
2022-09-20T20:01:24.370Z,98837.39
2022-09-20T20:03:53.550Z,98833.42
2022-09-20T20:06:36.324Z,98836.92
2022-09-20T20:09:08.472Z,98836.25
2022-09-20T20:11:41.624Z,98839.64
2022-09-20T20:14:34.050Z,98840.73
2022-09-20T20:17:18.060Z,98844.02
2022-09-20T20:20:05.634Z,98849.20
2022-09-20T20:22:58.618Z,98845.06
2022-09-20T20:25:35.190Z,98841.64
2022-09-20T20:28:02.047Z,98840.56
2022-09-20T20:30:28.844Z,98840.22
2022-09-20T20:32:58.388Z,98846.29
2022-09-20T20:35:26.051Z,98851.04
2022-09-20T20:37:53.960Z,98852.38
2022-09-20T20:40:20.861Z,98856.56
2022-09-20T20:42:48.020Z,98851.98
2022-09-20T20:45:14.998Z,98858.27
2022-09-20T20:47:42.713Z,98858.32
2022-09-20T20:50:12.004Z,98855.29
2022-09-20T20:52:39.277Z,98857.67
2022-09-20T20:55:06.349Z,98865.61
2022-09-20T20:57:34.309Z,98869.50
2022-09-20T21:00:01.154Z,98861.25
2022-09-20T21:02:27.901Z,98864.36
2022-09-20T21:04:55.139Z,98862.19
2022-09-20T21:07:21.896Z,98860.86
2022-09-20T21:09:48.614Z,98860.48
2022-09-20T21:12:15.547Z,98858.83
2022-09-20T21:14:44.551Z,98862.10
2022-09-20T21:17:11.412Z,98860.64
2022-09-20T21:19:38.154Z,98866.39
2022-09-20T21:22:04.898Z,98868.34
2022-09-20T21:24:31.723Z,98864.23
2022-09-20T21:26:58.472Z,98864.58
2022-09-20T21:29:25.196Z,98865.77
2022-09-20T21:31:52.282Z,98869.59
2022-09-20T21:34:19.036Z,98862.88
2022-09-20T21:36:45.826Z,98863.48
2022-09-20T21:39:13.394Z,98866.28
2022-09-20T21:41:41.013Z,98864.69
2022-09-20T21:44:10.762Z,98866.44
2022-09-20T21:46:40.969Z,98866.17
2022-09-20T21:49:10.119Z,98867.37
2022-09-20T21:51:38.742Z,98867.45
2022-09-20T21:54:05.742Z,98872.08
2022-09-20T21:56:34.568Z,98870.10
2022-09-20T21:59:03.928Z,98870.28
2022-09-20T22:01:34.618Z,98869.73
2022-09-20T22:04:06.564Z,98868.51
2022-09-20T22:06:36.463Z,98873.43
2022-09-20T22:09:07.590Z,98874.85
2022-09-20T22:11:39.194Z,98877.80
2022-09-20T22:14:07.144Z,98878.19
2022-09-20T22:16:37.296Z,98885.17
2022-09-20T22:19:05.322Z,98883.99
2022-09-20T22:21:35.755Z,98886.95
2022-09-20T22:24:08.072Z,98889.27
2022-09-20T22:26:37.886Z,98887.69
2022-09-20T22:29:05.421Z,98885.86
2022-09-20T22:31:34.514Z,98890.55
2022-09-20T22:34:04.033Z,98887.94
2022-09-20T22:36:34.332Z,98890.02
2022-09-20T22:39:02.065Z,98889.77
2022-09-20T22:41:29.126Z,98889.73
2022-09-20T22:43:56.673Z,98891.46
2022-09-20T22:46:26.057Z,98889.35
2022-09-20T22:48:53.061Z,98891.73
2022-09-20T22:51:23.368Z,98893.34
2022-09-20T22:53:52.272Z,98892.29
2022-09-20T22:56:21.726Z,98892.83
2022-09-20T22:58:51.770Z,98891.98
2022-09-20T23:01:21.728Z,98889.16
2022-09-20T23:03:56.520Z,98887.61
2022-09-20T23:06:26.633Z,98888.60
2022-09-20T23:08:56.257Z,98887.83
2022-09-20T23:11:24.365Z,98883.27
2022-09-20T23:14:00.371Z,98884.08
2022-09-20T23:16:30.304Z,98882.30
2022-09-20T23:18:59.477Z,98887.02
2022-09-20T23:21:27.088Z,98881.27
2022-09-20T23:23:55.970Z,98878.23
2022-09-20T23:26:23.751Z,98881.56
2022-09-20T23:28:56.414Z,98882.57
2022-09-20T23:31:27.161Z,98874.91
2022-09-20T23:33:56.820Z,98888.66
2022-09-20T23:36:25.349Z,98887.57
2022-09-20T23:38:52.366Z,98889.66
2022-09-20T23:41:21.727Z,98891.96
2022-09-20T23:43:48.757Z,98892.13
2022-09-20T23:46:17.524Z,98891.65
2022-09-20T23:48:45.127Z,98894.92
2022-09-20T23:51:14.515Z,98897.02
2022-09-20T23:53:42.605Z,98903.00
2022-09-20T23:56:10.699Z,98902.39
2022-09-20T23:58:38.957Z,98905.86
